createdAt,value
2017-07-19T00:01:57.268Z,59.50
2017-07-19T00:04:24.179Z,59.40
2017-07-19T00:06:51.091Z,59.50
2017-07-19T00:09:18.008Z,59.40
2017-07-19T00:11:44.839Z,59.70
2017-07-19T00:14:12.441Z,59.30
2017-07-19T00:16:39.388Z,59.30
2017-07-19T00:19:06.240Z,59.20
2017-07-19T00:21:33.062Z,59.10
2017-07-19T00:23:59.976Z,59.20
2017-07-19T00:26:26.806Z,59.80
2017-07-19T00:28:54.383Z,59.80
2017-07-19T00:31:22.032Z,59.30
2017-07-19T00:33:49.607Z,59.50
2017-07-19T00:36:16.430Z,59.40
2017-07-19T00:38:44.069Z,60.30
2017-07-19T00:41:10.887Z,59.70
2017-07-19T00:43:37.848Z,59.90
2017-07-19T00:46:04.688Z,59.70
2017-07-19T00:48:31.526Z,59.50
2017-07-19T00:50:58.444Z,59.80
2017-07-19T00:53:25.284Z,60.10
2017-07-19T00:55:52.135Z,60.00
2017-07-19T00:58:19.032Z,59.90
2017-07-19T01:00:45.915Z,59.80
2017-07-19T01:03:12.856Z,59.70
2017-07-19T01:05:40.248Z,59.50
2017-07-19T01:08:07.099Z,59.00
2017-07-19T01:10:34.037Z,59.20
2017-07-19T01:13:00.924Z,58.80
2017-07-19T01:15:27.778Z,58.90
2017-07-19T01:17:55.423Z,58.40
2017-07-19T01:20:22.331Z,58.40
2017-07-19T01:22:49.247Z,58.50
2017-07-19T01:25:16.080Z,58.40
2017-07-19T01:27:42.907Z,58.40
2017-07-19T01:30:09.804Z,58.90
2017-07-19T01:32:36.649Z,58.90
2017-07-19T01:35:03.473Z,58.90
2017-07-19T01:37:30.396Z,59.10
2017-07-19T01:39:57.255Z,59.50
2017-07-19T01:42:24.819Z,60.00
2017-07-19T01:44:51.833Z,60.00
2017-07-19T01:47:18.659Z,59.90
2017-07-19T01:49:45.476Z,59.70
2017-07-19T01:52:12.374Z,59.60
2017-07-19T01:54:39.208Z,59.80
2017-07-19T01:57:06.100Z,59.70
2017-07-19T01:59:32.954Z,59.40
2017-07-19T02:01:59.783Z,59.20
2017-07-19T02:04:26.679Z,59.40
2017-07-19T02:06:53.520Z,59.10
2017-07-19T02:09:20.388Z,59.50
2017-07-19T02:11:47.304Z,59.60
2017-07-19T02:14:14.145Z,59.70
2017-07-19T02:16:41.022Z,59.80
2017-07-19T02:19:07.972Z,59.90
2017-07-19T02:21:35.625Z,60.40
2017-07-19T02:24:02.547Z,60.00
2017-07-19T02:26:29.392Z,60.50
2017-07-19T02:28:56.228Z,60.40
2017-07-19T02:31:23.140Z,60.30
2017-07-19T02:33:49.975Z,60.50
2017-07-19T02:36:17.982Z,60.10
2017-07-19T02:38:44.935Z,60.10
2017-07-19T02:41:12.179Z,60.30
2017-07-19T02:43:38.987Z,60.30
2017-07-19T02:46:06.547Z,60.30
2017-07-19T02:48:33.439Z,60.30
2017-07-19T02:51:00.384Z,60.20
2017-07-19T02:53:27.225Z,60.60
2017-07-19T02:55:54.062Z,60.40
2017-07-19T02:58:20.967Z,60.20
2017-07-19T03:00:47.787Z,60.40
2017-07-19T03:03:14.625Z,60.70
2017-07-19T03:05:41.539Z,60.90
2017-07-19T03:08:08.363Z,61.40
2017-07-19T03:10:35.203Z,61.50
2017-07-19T03:13:02.107Z,61.20
2017-07-19T03:15:28.939Z,61.20
2017-07-19T03:17:55.761Z,61.20
2017-07-19T03:20:22.651Z,61.20
2017-07-19T03:22:49.564Z,61.10
2017-07-19T03:25:16.448Z,60.60
2017-07-19T03:27:44.042Z,61.10
2017-07-19T03:30:10.956Z,61.10
2017-07-19T03:32:38.536Z,61.80
2017-07-19T03:35:05.377Z,61.80
2017-07-19T03:37:32.285Z,61.80
2017-07-19T03:39:59.126Z,61.60
2017-07-19T03:42:25.948Z,61.80
2017-07-19T03:44:52.832Z,61.50
2017-07-19T03:47:20.433Z,61.70
2017-07-19T03:49:47.279Z,61.40
2017-07-19T03:52:14.184Z,61.00
2017-07-19T03:54:41.071Z,61.00
2017-07-19T03:57:07.980Z,61.20
2017-07-19T03:59:34.845Z,61.50
2017-07-19T04:02:06.986Z,61.40
2017-07-19T04:04:36.907Z,61.30
2017-07-19T04:07:08.240Z,61.30
2017-07-19T04:09:36.515Z,61.40
2017-07-19T04:12:11.439Z,61.20
2017-07-19T04:14:44.939Z,61.20
2017-07-19T04:17:16.921Z,61.50
2017-07-19T04:19:53.691Z,61.60
2017-07-19T04:22:21.183Z,61.20
2017-07-19T04:24:53.523Z,61.50
2017-07-19T04:27:31.832Z,61.50
2017-07-19T04:32:42.344Z,61.00
2017-07-19T04:35:10.324Z,60.90
2017-07-19T04:37:37.172Z,60.90
2017-07-19T04:40:04.863Z,60.00
2017-07-19T04:42:31.799Z,59.20
2017-07-19T04:44:59.335Z,58.60
2017-07-19T04:47:35.184Z,57.70
2017-07-19T04:50:03.682Z,57.80
2017-07-19T04:52:30.583Z,58.30
2017-07-19T04:54:58.222Z,59.10
2017-07-19T04:57:25.106Z,56.60
2017-07-19T04:59:52.914Z,58.00
2017-07-19T05:02:19.752Z,57.40
2017-07-19T05:04:46.600Z,57.30
2017-07-19T05:07:13.852Z,58.30
2017-07-19T05:09:40.736Z,58.80
2017-07-19T05:12:07.630Z,56.80
2017-07-19T05:14:34.459Z,56.60
2017-07-19T05:17:02.028Z,56.80
2017-07-19T05:19:28.970Z,56.70
2017-07-19T05:21:55.853Z,53.70
2017-07-19T05:24:22.711Z,51.80
2017-07-19T05:26:49.622Z,50.90
2017-07-19T05:29:16.461Z,51.90
2017-07-19T05:31:43.291Z,51.60
2017-07-19T05:34:10.203Z,51.70
2017-07-19T05:36:37.028Z,53.30
2017-07-19T05:39:04.024Z,54.20
2017-07-19T05:41:31.604Z,54.80
2017-07-19T05:43:58.413Z,54.70
2017-07-19T05:46:26.097Z,54.70
2017-07-19T05:48:52.941Z,54.40
2017-07-19T05:51:19.769Z,55.20
2017-07-19T05:53:46.669Z,54.00
2017-07-19T05:56:14.255Z,54.80
2017-07-19T05:58:41.160Z,53.70
2017-07-19T06:01:08.069Z,54.00
2017-07-19T06:03:35.634Z,53.00
2017-07-19T06:06:03.280Z,52.30
2017-07-19T06:08:30.176Z,52.30
2017-07-19T06:10:56.994Z,52.20
2017-07-19T06:13:23.835Z,52.10
2017-07-19T06:15:50.746Z,52.40
2017-07-19T06:18:17.589Z,52.40
2017-07-19T06:20:44.424Z,53.00
2017-07-19T06:23:11.401Z,53.00
2017-07-19T06:25:38.967Z,54.20
2017-07-19T06:28:06.559Z,54.40
2017-07-19T06:30:33.437Z,54.40
2017-07-19T06:33:00.345Z,54.50
2017-07-19T06:35:27.266Z,54.50
2017-07-19T06:37:54.849Z,54.50
2017-07-19T06:40:21.684Z,54.50
2017-07-19T06:42:48.606Z,55.00
2017-07-19T06:45:15.439Z,55.10
2017-07-19T06:47:42.455Z,55.10
2017-07-19T06:50:09.356Z,55.10
2017-07-19T06:52:36.281Z,54.30
2017-07-19T06:55:03.104Z,53.30
2017-07-19T06:57:29.992Z,53.70
2017-07-19T06:59:56.815Z,54.30
2017-07-19T07:02:24.447Z,54.10
2017-07-19T07:04:51.341Z,53.30
2017-07-19T07:07:18.915Z,51.90
2017-07-19T07:09:45.827Z,51.80
2017-07-19T07:12:12.642Z,51.70
2017-07-19T07:14:39.471Z,51.50
2017-07-19T07:17:06.384Z,51.60
2017-07-19T07:19:33.205Z,52.80
2017-07-19T07:22:00.754Z,51.30
2017-07-19T07:24:27.743Z,51.60
2017-07-19T07:26:54.585Z,48.80
2017-07-19T07:29:21.435Z,49.70
2017-07-19T07:31:48.334Z,49.80
2017-07-19T07:34:15.184Z,49.40
2017-07-19T07:36:42.012Z,49.20
2017-07-19T07:39:08.904Z,49.20
2017-07-19T07:41:35.743Z,48.10
2017-07-19T07:44:02.710Z,47.10
2017-07-19T07:46:29.626Z,47.40
2017-07-19T07:48:57.216Z,46.30
2017-07-19T07:51:24.065Z,46.20
2017-07-19T07:53:50.955Z,46.40
2017-07-19T07:56:17.803Z,45.40
2017-07-19T07:58:44.712Z,44.50
2017-07-19T08:01:11.596Z,44.60
2017-07-19T08:03:38.439Z,45.00
2017-07-19T08:06:05.274Z,43.40
2017-07-19T08:08:32.147Z,42.60
2017-07-19T08:10:59.811Z,41.60
2017-07-19T08:13:27.483Z,41.50
2017-07-19T08:15:54.297Z,41.40
2017-07-19T08:18:21.135Z,40.70
2017-07-19T08:20:48.023Z,38.20
2017-07-19T08:23:14.848Z,35.90
2017-07-19T08:25:41.816Z,34.80
2017-07-19T08:28:08.797Z,33.80
2017-07-19T08:30:35.682Z,32.10
2017-07-19T08:33:03.266Z,32.10
2017-07-19T08:35:30.344Z,31.40
2017-07-19T08:37:57.203Z,30.90
2017-07-19T08:40:24.026Z,31.50
2017-07-19T08:42:50.937Z,30.10
2017-07-19T08:45:17.864Z,29.60
2017-07-19T08:47:44.700Z,29.20
2017-07-19T08:50:11.544Z,29.20
2017-07-19T08:52:39.218Z,26.40
2017-07-19T08:55:06.784Z,27.80
2017-07-19T08:57:34.380Z,27.60
2017-07-19T09:00:01.268Z,27.60
2017-07-19T09:02:28.174Z,28.10
2017-07-19T09:04:55.003Z,28.20
2017-07-19T09:07:21.920Z,28.20
2017-07-19T09:09:48.908Z,28.70
2017-07-19T09:12:15.755Z,28.40
2017-07-19T09:14:42.645Z,28.00
2017-07-19T09:17:09.479Z,28.80
2017-07-19T09:19:36.378Z,27.80
2017-07-19T09:22:09.004Z,28.00
2017-07-19T09:24:36.800Z,26.90
2017-07-19T09:27:14.271Z,25.20
2017-07-19T09:29:41.487Z,25.20
2017-07-19T09:32:08.323Z,27.60
2017-07-19T09:34:35.143Z,28.20
2017-07-19T09:37:02.032Z,28.00
2017-07-19T09:39:28.852Z,26.70
2017-07-19T09:41:55.765Z,26.40
2017-07-19T09:44:23.428Z,26.30
2017-07-19T09:46:51.008Z,26.60
2017-07-19T09:49:17.968Z,26.60
2017-07-19T09:51:44.823Z,25.70
2017-07-19T09:54:20.143Z,26.60
2017-07-19T09:56:47.884Z,25.90
2017-07-19T09:59:15.567Z,25.80
2017-07-19T10:01:42.398Z,25.70
2017-07-19T10:04:09.296Z,25.30
2017-07-19T10:06:36.690Z,26.10
2017-07-19T10:09:05.361Z,26.20
2017-07-19T10:11:35.791Z,26.70
2017-07-19T10:14:06.803Z,26.90
2017-07-19T10:16:33.703Z,26.80
2017-07-19T10:19:01.268Z,26.40
2017-07-19T10:21:28.288Z,26.80
2017-07-19T10:23:55.765Z,27.20
2017-07-19T10:26:24.954Z,27.20
2017-07-19T10:28:51.873Z,27.10
2017-07-19T10:31:18.712Z,27.90
2017-07-19T10:33:46.193Z,27.00
2017-07-19T10:36:15.700Z,26.50
2017-07-19T10:38:43.203Z,26.20
2017-07-19T10:41:10.179Z,26.30
2017-07-19T10:43:37.012Z,26.70
2017-07-19T10:46:03.855Z,26.90
2017-07-19T10:48:30.735Z,26.60
2017-07-19T10:50:57.613Z,26.80
2017-07-19T10:53:24.547Z,26.60
2017-07-19T10:55:52.127Z,25.90
2017-07-19T10:58:18.955Z,25.90
2017-07-19T11:00:45.857Z,24.40
2017-07-19T11:03:12.725Z,25.30
2017-07-19T11:05:39.562Z,25.90
2017-07-19T11:08:06.476Z,26.50
2017-07-19T11:10:33.344Z,24.90
2017-07-19T11:13:00.199Z,25.20
2017-07-19T11:15:27.100Z,25.60
2017-07-19T11:17:54.015Z,26.30
2017-07-19T11:20:20.940Z,27.30
2017-07-19T11:22:47.819Z,26.00
2017-07-19T11:25:14.652Z,26.50
2017-07-19T11:27:41.578Z,26.30
2017-07-19T11:30:09.157Z,26.40
2017-07-19T11:32:36.076Z,26.40
2017-07-19T11:35:02.984Z,27.10
2017-07-19T11:37:29.806Z,27.20
2017-07-19T11:39:56.825Z,26.90
2017-07-19T11:42:24.403Z,26.10
2017-07-19T11:44:51.247Z,26.00
2017-07-19T11:47:18.222Z,27.00
2017-07-19T11:49:45.105Z,26.20
2017-07-19T11:52:12.021Z,28.00
2017-07-19T11:54:38.887Z,26.40
2017-07-19T11:57:05.733Z,26.90
2017-07-19T11:59:32.640Z,28.20
2017-07-19T12:01:59.473Z,28.30
2017-07-19T12:04:26.367Z,28.70
2017-07-19T12:06:53.278Z,27.70
2017-07-19T12:09:20.100Z,28.00
2017-07-19T12:11:47.018Z,27.80
2017-07-19T12:14:13.849Z,27.60
2017-07-19T12:16:40.760Z,28.50
2017-07-19T12:19:07.595Z,27.30
2017-07-19T12:21:34.441Z,27.80
2017-07-19T12:24:01.334Z,28.70
2017-07-19T12:26:28.162Z,27.90
2017-07-19T12:28:55.063Z,28.00
2017-07-19T12:31:21.894Z,28.50
2017-07-19T12:33:48.735Z,27.20
2017-07-19T12:36:15.651Z,27.60
2017-07-19T12:38:42.611Z,27.20
2017-07-19T12:41:09.704Z,27.80
2017-07-19T12:43:36.704Z,27.10
2017-07-19T12:46:10.588Z,27.50
2017-07-19T12:48:37.627Z,27.40
2017-07-19T12:51:04.600Z,27.50
2017-07-19T12:53:31.543Z,27.50
2017-07-19T12:55:58.558Z,27.80
2017-07-19T12:58:25.618Z,27.60
2017-07-19T13:00:52.562Z,28.10
2017-07-19T13:03:19.514Z,27.80
2017-07-19T13:05:46.414Z,28.90
2017-07-19T13:08:13.248Z,27.80
2017-07-19T13:10:40.849Z,28.40
2017-07-19T13:13:07.800Z,28.40
2017-07-19T13:15:34.757Z,29.00
2017-07-19T13:18:01.814Z,28.50
2017-07-19T13:20:28.793Z,28.00
2017-07-19T13:22:56.753Z,28.20
2017-07-19T13:25:23.780Z,28.20
2017-07-19T13:27:50.629Z,28.60
2017-07-19T13:30:17.449Z,28.60
2017-07-19T13:32:44.350Z,28.60
2017-07-19T13:35:11.167Z,27.80
2017-07-19T13:37:38.812Z,27.70
2017-07-19T13:40:05.645Z,27.70
2017-07-19T13:42:32.544Z,27.80
2017-07-19T13:44:59.525Z,28.00
2017-07-19T13:47:26.441Z,27.40
2017-07-19T13:49:53.256Z,26.90
2017-07-19T13:52:20.833Z,27.40
2017-07-19T13:54:48.480Z,27.50
2017-07-19T13:57:16.062Z,27.90
2017-07-19T13:59:42.943Z,27.80
2017-07-19T14:02:09.755Z,27.40
2017-07-19T14:04:36.588Z,27.70
2017-07-19T14:07:03.512Z,28.50
2017-07-19T14:09:30.331Z,28.70
2017-07-19T14:11:57.164Z,27.50
2017-07-19T14:14:24.048Z,26.90
2017-07-19T14:16:51.679Z,27.20
2017-07-19T14:19:18.605Z,27.20
2017-07-19T14:21:45.430Z,27.00
2017-07-19T14:24:12.259Z,27.40
2017-07-19T14:26:39.183Z,26.80
2017-07-19T14:29:06.004Z,27.10
2017-07-19T14:31:32.872Z,27.60
2017-07-19T14:33:59.772Z,26.20
2017-07-19T14:36:26.674Z,27.20
2017-07-19T14:38:53.504Z,26.20
2017-07-19T14:41:20.407Z,26.50
2017-07-19T14:43:47.224Z,27.60
2017-07-19T14:46:14.136Z,25.70
2017-07-19T14:48:40.974Z,26.20
2017-07-19T14:51:07.814Z,26.80
2017-07-19T14:53:34.720Z,27.10
2017-07-19T14:56:01.563Z,26.30
2017-07-19T14:58:28.396Z,26.30
2017-07-19T15:00:55.339Z,26.50
2017-07-19T15:03:22.151Z,26.90
2017-07-19T15:05:49.012Z,27.00
2017-07-19T15:08:16.643Z,27.00
2017-07-19T15:10:43.481Z,27.00
2017-07-19T15:13:10.380Z,26.10
2017-07-19T15:15:37.264Z,26.60
2017-07-19T15:18:04.089Z,27.20
2017-07-19T15:20:31.100Z,26.30
2017-07-19T15:22:58.038Z,26.50
2017-07-19T15:25:24.863Z,25.80
2017-07-19T15:27:51.764Z,26.40
2017-07-19T15:30:18.587Z,25.90
2017-07-19T15:32:45.409Z,25.80
2017-07-19T15:35:12.304Z,26.60
2017-07-19T15:37:39.185Z,26.80
2017-07-19T15:40:06.017Z,26.50
2017-07-19T15:42:32.990Z,26.80
2017-07-19T15:44:59.851Z,27.20
2017-07-19T15:47:26.683Z,27.00
2017-07-19T15:49:53.585Z,27.50
2017-07-19T15:52:20.412Z,28.90
2017-07-19T15:54:47.330Z,28.60
2017-07-19T15:57:14.339Z,28.60
2017-07-19T15:59:42.001Z,28.70
2017-07-19T16:02:09.011Z,28.70
2017-07-19T16:04:35.944Z,29.10
2017-07-19T16:07:02.910Z,29.30
2017-07-19T16:09:29.890Z,29.30
2017-07-19T16:11:56.882Z,29.60
2017-07-19T16:14:23.906Z,30.00
2017-07-19T16:16:50.811Z,30.10
2017-07-19T16:19:17.641Z,30.60
2017-07-19T16:21:44.545Z,31.00
2017-07-19T16:24:11.367Z,31.60
2017-07-19T16:26:38.204Z,32.10
2017-07-19T16:29:05.078Z,32.50
2017-07-19T16:31:31.972Z,31.90
2017-07-19T16:33:58.806Z,32.80
2017-07-19T16:36:25.780Z,32.90
2017-07-19T16:38:52.704Z,33.10
2017-07-19T16:41:19.560Z,33.00
2017-07-19T16:43:46.413Z,33.40
2017-07-19T16:46:13.298Z,33.30
2017-07-19T16:48:40.167Z,33.10
2017-07-19T16:51:07.055Z,33.80
2017-07-19T16:53:33.981Z,33.10
2017-07-19T16:56:00.822Z,33.60
2017-07-19T16:58:27.660Z,33.70
2017-07-19T17:00:54.607Z,33.80
2017-07-19T17:03:21.456Z,33.80
2017-07-19T17:05:48.284Z,33.70
2017-07-19T17:08:15.170Z,34.20
2017-07-19T17:10:42.007Z,33.70
2017-07-19T17:13:09.071Z,32.70
2017-07-19T17:15:36.642Z,33.20
2017-07-19T17:18:03.490Z,33.10
2017-07-19T17:20:30.391Z,34.00
2017-07-19T17:22:57.232Z,34.20
2017-07-19T17:25:24.128Z,34.30
2017-07-19T17:27:51.110Z,34.90
2017-07-19T17:30:17.929Z,35.20
2017-07-19T17:32:44.852Z,35.40
2017-07-19T17:35:11.742Z,35.70
2017-07-19T17:37:38.550Z,36.10
2017-07-19T17:40:05.464Z,36.50
2017-07-19T17:42:32.320Z,36.60
2017-07-19T17:44:59.875Z,36.70
2017-07-19T17:47:27.529Z,36.50
2017-07-19T17:49:54.358Z,36.40
2017-07-19T17:52:21.171Z,36.80
2017-07-19T17:54:48.078Z,37.20
2017-07-19T17:57:15.638Z,37.20
2017-07-19T17:59:43.227Z,37.60
2017-07-19T18:02:10.132Z,37.50
2017-07-19T18:04:37.025Z,37.40
2017-07-19T18:07:03.865Z,37.70
2017-07-19T18:09:30.771Z,38.00
2017-07-19T18:11:58.340Z,37.80
2017-07-19T18:14:25.923Z,37.80
2017-07-19T18:16:52.813Z,37.80
2017-07-19T18:19:19.648Z,37.80
2017-07-19T18:21:46.498Z,38.50
2017-07-19T18:24:13.403Z,40.20
2017-07-19T18:26:40.306Z,41.30
2017-07-19T18:29:07.127Z,42.00
2017-07-19T18:31:34.040Z,42.70
2017-07-19T18:34:00.936Z,43.60
2017-07-19T18:36:27.764Z,43.30
2017-07-19T18:38:54.667Z,43.30
2017-07-19T18:41:21.492Z,43.70
2017-07-19T18:43:48.319Z,45.60
2017-07-19T18:46:15.297Z,48.10
2017-07-19T18:48:42.130Z,55.40
2017-07-19T18:51:08.964Z,58.80
2017-07-19T18:53:36.612Z,59.80
2017-07-19T18:56:03.428Z,59.70
2017-07-19T18:58:30.364Z,59.80
2017-07-19T19:00:57.175Z,63.20
2017-07-19T19:03:26.131Z,58.90
2017-07-19T19:05:53.049Z,61.20
2017-07-19T19:08:19.863Z,62.20
2017-07-19T19:10:46.692Z,63.60
2017-07-19T19:13:14.199Z,63.70
2017-07-19T19:15:41.043Z,63.90
2017-07-19T19:18:07.876Z,63.60
2017-07-19T19:20:34.762Z,64.50
2017-07-19T19:23:01.591Z,63.70
2017-07-19T19:25:28.416Z,63.10
2017-07-19T19:27:55.319Z,64.60
2017-07-19T19:30:22.154Z,64.10
2017-07-19T19:32:49.077Z,65.10
2017-07-19T19:35:15.920Z,64.40
2017-07-19T19:37:42.740Z,63.90
2017-07-19T19:40:11.621Z,65.10
2017-07-19T19:42:38.451Z,67.30
2017-07-19T19:45:05.385Z,67.20
2017-07-19T19:47:32.403Z,66.70
2017-07-19T19:50:00.082Z,67.20
2017-07-19T19:52:27.020Z,67.20
2017-07-19T19:54:54.027Z,68.20
2017-07-19T19:57:20.964Z,67.50
2017-07-19T19:59:47.859Z,68.10
2017-07-19T20:02:14.708Z,69.80
2017-07-19T20:04:42.300Z,68.40
2017-07-19T20:07:09.205Z,68.40
2017-07-19T20:09:36.772Z,68.50
2017-07-19T20:12:04.341Z,69.70
2017-07-19T20:14:32.833Z,68.20
2017-07-19T20:16:59.655Z,68.20
2017-07-19T20:19:26.549Z,68.10
2017-07-19T20:21:53.401Z,69.70
2017-07-19T20:24:20.308Z,68.80
2017-07-19T20:26:47.893Z,68.10
2017-07-19T20:29:14.719Z,68.00
2017-07-19T20:31:41.701Z,67.90
2017-07-19T20:34:08.590Z,68.30
2017-07-19T20:36:36.167Z,68.90
2017-07-19T20:39:03.942Z,67.70
2017-07-19T20:41:30.894Z,67.70
2017-07-19T20:43:57.740Z,70.30
2017-07-19T20:46:24.566Z,67.50
2017-07-19T20:48:52.241Z,69.70
2017-07-19T20:51:19.076Z,69.60
2017-07-19T20:53:45.893Z,67.70
2017-07-19T20:56:12.800Z,70.00
2017-07-19T20:58:39.627Z,68.80
2017-07-19T21:01:06.479Z,68.30
2017-07-19T21:03:33.397Z,69.30
2017-07-19T21:06:00.235Z,69.00
2017-07-19T21:08:27.891Z,69.40
2017-07-19T21:10:55.464Z,69.50
2017-07-19T21:13:22.349Z,69.50
2017-07-19T21:15:49.333Z,70.20
2017-07-19T21:18:16.172Z,70.70
2017-07-19T21:20:43.130Z,70.90
2017-07-19T21:23:10.703Z,69.90
2017-07-19T21:25:38.265Z,70.10
2017-07-19T21:28:05.176Z,70.00
2017-07-19T21:30:32.000Z,69.10
2017-07-19T21:32:58.879Z,69.30
2017-07-19T21:35:26.524Z,71.70
2017-07-19T21:37:53.364Z,71.40
2017-07-19T21:40:20.265Z,70.50
2017-07-19T21:42:47.340Z,69.70
2017-07-19T21:45:14.603Z,69.20
2017-07-19T21:47:43.447Z,70.10
2017-07-19T21:50:12.075Z,71.60
2017-07-19T21:52:40.095Z,69.70
2017-07-19T21:55:09.650Z,71.30
2017-07-19T21:57:37.721Z,70.90
2017-07-19T22:00:08.193Z,72.30
2017-07-19T22:02:37.188Z,70.90
2017-07-19T22:05:06.938Z,70.60
2017-07-19T22:07:34.977Z,70.60
2017-07-19T22:10:04.262Z,71.20
2017-07-19T22:12:32.140Z,70.70
2017-07-19T22:15:01.100Z,70.90
2017-07-19T22:17:30.065Z,69.50
2017-07-19T22:19:58.506Z,69.50
2017-07-19T22:22:27.815Z,71.10
2017-07-19T22:24:56.773Z,69.50
2017-07-19T22:27:25.043Z,69.40
2017-07-19T22:29:55.077Z,70.70
2017-07-19T22:32:26.129Z,70.20
2017-07-19T22:34:55.874Z,70.20
2017-07-19T22:37:27.696Z,71.50
2017-07-19T22:40:00.650Z,70.70
2017-07-19T22:42:39.411Z,70.10
2017-07-19T22:45:10.356Z,70.20
2017-07-19T22:47:49.783Z,70.20
2017-07-19T22:50:27.224Z,68.90
2017-07-19T22:53:00.659Z,69.90
2017-07-19T22:55:40.052Z,70.50
2017-07-19T22:58:17.800Z,71.20
2017-07-19T23:00:57.058Z,72.40
2017-07-19T23:03:25.378Z,72.90
2017-07-19T23:05:53.432Z,72.90
2017-07-19T23:08:29.841Z,73.10
2017-07-19T23:11:08.529Z,72.80
2017-07-19T23:13:46.555Z,72.90
2017-07-19T23:16:19.374Z,72.40
2017-07-19T23:18:57.076Z,72.10
2017-07-19T23:21:34.772Z,72.50
2017-07-19T23:24:14.881Z,72.50
2017-07-19T23:26:46.975Z,73.20
2017-07-19T23:29:14.444Z,73.20
2017-07-19T23:31:43.259Z,73.50
2017-07-19T23:34:12.202Z,73.10
2017-07-19T23:36:39.115Z,72.80
2017-07-19T23:39:05.959Z,72.50
2017-07-19T23:41:34.426Z,72.70
2017-07-19T23:44:04.888Z,72.60
2017-07-19T23:46:31.910Z,72.50
2017-07-19T23:48:59.484Z,71.70
2017-07-19T23:51:26.386Z,72.30
2017-07-19T23:53:53.272Z,70.40
2017-07-19T23:56:20.184Z,71.40
2017-07-19T23:58:47.104Z,71.20
